Date,TemperatureHighF,TemperatureAvgF,TemperatureLowF,DewpointHighF,DewpointAvgF,DewpointLowF,HumidityHigh,HumidityAvg,HumidityLow,PressureMaxIn,PressureMinIn,WindSpeedMaxMPH,WindSpeedAvgMPH,GustSpeedMaxMPH,PrecipitationSumIn
2013-12-1,71,60,52,-100,-100,-100,0,0,100,0.00,40.00,9,5,10,0.00
2013-12-2,69,61,53,-100,-100,-100,0,0,100,0.00,40.00,14,10,21,0.00
2013-12-3,73,62,56,-100,-100,-100,0,0,100,0.00,40.00,21,11,26,0.00
2013-12-4,73,61,47,-100,-100,-100,0,0,100,0.00,40.00,23,10,23,0.00
2013-12-5,58,37,25,-100,-100,-100,0,0,100,0.00,40.00,13,5,18,0.00
2013-12-6,29,26,23,-100,-100,-100,0,0,100,0.00,40.00,10,4,11,0.00
2013-12-7,31,22,18,-100,-100,-100,0,0,100,0.00,40.00,5,2,7,0.00
2013-12-8,65,47,28,-100,-100,-100,0,0,100,0.00,40.00,17,9,23,0.00
2013-12-9,58,43,27,-100,-100,-100,0,0,100,0.00,40.00,14,4,15,0.00
2013-12-10,56,38,22,-100,-100,-100,0,0,100,0.00,40.00,10,4,14,0.00
2013-12-11,49,40,31,-100,-100,-100,0,0,100,0.00,40.00,12,6,16,0.00
2013-12-12,51,40,30,-100,-100,-100,0,0,100,0.00,40.00,12,5,13,0.00
2013-12-13,60,49,38,-100,-100,-100,0,0,100,0.00,40.00,24,8,28,0.00
2013-12-14,50,38,31,-100,-100,-100,0,0,100,0.00,40.00,16,5,16,0.00
2013-12-15,58,41,25,-100,-100,-100,0,0,100,0.00,40.00,14,7,19,0.00
2013-12-16,65,48,36,-100,-100,-100,0,0,100,0.00,40.00,18,8,23,0.00
2013-12-17,65,48,33,-100,-100,-100,0,0,100,0.00,40.00,11,4,12,0.00
2013-12-18,67,52,37,-100,-100,-100,0,0,100,0.00,40.00,14,8,19,0.00
2013-12-19,71,60,51,-100,-100,-100,0,0,100,0.00,40.00,29,12,33,0.00
2013-12-20,62,56,50,-100,-100,-100,0,0,100,0.00,40.00,29,14,33,0.00
2013-12-21,50,42,36,-100,-100,-100,0,0,100,0.00,40.00,35,13,39,0.00
2013-12-22,42,36,27,-100,-100,-100,0,0,100,0.00,40.00,25,6,25,0.00
2013-12-23,56,39,29,-100,-100,-100,0,0,100,0.00,40.00,7,2,13,0.00
2013-12-24,58,41,30,-100,-100,-100,0,0,100,0.00,40.00,16,7,23,0.00
2013-12-25,47,38,30,-100,-100,-100,0,0,100,0.00,40.00,12,6,18,0.00
2013-12-26,52,36,25,-100,-100,-100,0,0,100,0.00,40.00,10,3,15,0.00
2013-12-27,52,39,28,-100,-100,-100,0,0,100,0.00,40.00,10,5,14,0.00
2013-12-28,57,43,31,-100,-100,-100,0,0,100,0.00,40.00,15,7,21,0.00
2013-12-29,45,37,28,-100,-100,-100,0,0,100,0.00,40.00,17,8,17,0.00
2013-12-30,58,38,22,-100,-100,-100,0,0,100,0.00,40.00,9,4,10,0.00
2013-12-31,58,42,30,-100,-100,-100,0,0,100,0.00,40.00,16,6,19,0.00